LCLKLTBS

Guest
Details From LCLK - Larnaca
To LTBS - DALAMAN
Flight Number -
Tags generated
Created
Modified
Stats Distance 265 nm / 492 km
Max Altitude 24,500 ft / 7,468 m
Waypoints 5
Social Downloads 0
Likes 0
Share VATSIM

Download

Looking for another format? Having issues loading an existing format? Contact us
Advertisement - Login to hide

Notes

Basic altitude profile: - Ascent Rate: 2500ft/min - Ascent Speed: 280kts - Cruise Altitude: 2000ft - Cruise Speed: 420kts - Descent Rate: 1500ft/min - Descent Speed: 250kts Options: - Use NATs: yes - Use PACOTS: yes - Use low airways: yes - Use high airways: yes

Route

LCLK DAROS M601 DASNI UM601 EVENO LTBS

ID Type Via Altitude Latitude Longitude Leg Dist Tot Dist Heading (true) Name
O LCLK APT - 0 ft / 0 m 34.87512˚ 33.62483˚ - 0 nm - Larnaca
DAROS FIX - 8,800 ft / 2,682 m 35.01167˚ 33.14833˚ 24 nm 24 nm 289° / 289° -
DASNI FIX M601 (AWY-LO) 24,500 ft / 7,468 m 35.61667˚ 30.85000˚ 118 nm 143 nm 289° / 287° -
EVENO FIX UM601 (AWY-HI) 24,000 ft / 7,315 m 35.83333˚ 30.00000˚ 43 nm 186 nm 288° / 287° -
O LTBS APT - 0 ft / 0 m 36.71319˚ 28.79251˚ 78 nm 265 nm 312° / 312° DALAMAN

Altitude Profile

Advertisement - Login to hide

Weather


0- 5 10 15 20 25 30 35+ Temperature / ° C

Clouds and Precipitation
Forecast for 2017-12-18 00:00 UTC. Updated 40 minutes ago

Ground ~20,000 ft ~40,000 ft Winds

LCLK

Details ICAO LCLK (LCA)
Name Larnaca
Region Cyprus
Timezone Asia/Nicosia (UTC+2.0)
Stats Elevation 8 ft / 2 m (AMSL)
Location 34.875115° 33.624832°
Runways 1
Magnetic Variation 4.991° E

METAR

LCLK 171930Z 31005KT 290V350 9999 SCT025 16/15 Q1020 NOSIG

Decode

TAF

TAF LCLK 171730Z 1718/1818 32006KT 9999 FEW025 BECMG 1807/1810 18010KT

Decode

Departure Runways

ID Width Length Bearing (true) Bearing (mag) Surface Threshold Offset Overrun Length
04 148 ft / 45 m 9,771 ft / 2,978 m 45.15° 40.16° Asphalt 0 ft / 0 m 210 ft / 64 m
22 148 ft / 45 m 9,771 ft / 2,978 m 225.17° 220.18° Asphalt 575 ft / 175 m 0 ft / 0 m

LTBS

Details ICAO LTBS (DLM)
Name DALAMAN
Region Turkey
Timezone Europe/Istanbul (UTC+3.0)
Stats Elevation 20 ft / 6 m (AMSL)
Location 36.713189° 28.792513°
Runways 1
Magnetic Variation 4.880° E

METAR

LTBS 171920Z 17013KT 9999 SCT020 BKN070 18/13 Q1017 R012///95 BECMG TL2100 VRB02KT

Decode

TAF

Not found

Destination Runways

ID Width Length Bearing (true) Bearing (mag) Surface Threshold Offset Overrun Length
01 148 ft / 45 m 9,851 ft / 3,003 m 15.24° 10.36° Concrete 0 ft / 0 m 197 ft / 60 m
19 148 ft / 45 m 9,851 ft / 3,003 m 195.25° 190.37° Concrete 0 ft / 0 m 197 ft / 60 m

Popular Alternatives